Time;durP1;ratioP1;P1;durP2;ratioP2;P2;SDS_P1;SDS_P2;PMS_P1;PMS_P2;Temp;Humidity;BMP_temperature;BMP_pressure;BME280_temperature;BME280_humidity;BME280_pressure;Samples;Min_cycle;Max_cycle;Signal;HPM_P1;HPM_P2
2021/08/11 00:01:43;;;;;;;4.50;2.55;;;19.70;66.40;;;;;;5058623;28;20522;-66
2021/08/11 00:04:10;;;;;;;5.45;2.95;;;19.80;65.60;;;;;;5061689;28;20390;-64
2021/08/11 00:06:38;;;;;;;3.22;1.67;;;19.80;65.10;;;;;;5067151;28;20528;-68
2021/08/11 00:09:05;;;;;;;4.88;2.40;;;20.00;64.90;;;;;;5066545;28;21084;-67
2021/08/11 00:11:34;;;;;;;4.32;2.10;;;19.90;64.60;;;;;;5057842;28;20029;-64
2021/08/11 00:14:02;;;;;;;3.80;2.05;;;20.00;64.90;;;;;;5066101;28;20112;-66
2021/08/11 00:16:30;;;;;;;5.22;1.90;;;20.10;64.80;;;;;;5069580;28;20083;-65
2021/08/11 00:18:57;;;;;;;3.45;2.00;;;20.20;63.80;;;;;;5068350;28;20454;-63
2021/08/11 00:21:25;;;;;;;4.43;1.85;;;20.30;64.40;;;;;;5062043;28;20125;-68
2021/08/11 00:23:53;;;;;;;4.63;2.00;;;20.40;63.10;;;;;;5068769;28;20017;-64
2021/08/11 00:26:21;;;;;;;3.67;2.10;;;20.40;64.10;;;;;;5069477;28;20024;-63
2021/08/11 00:28:48;;;;;;;3.17;1.70;;;20.40;63.70;;;;;;5069570;28;20049;-69
2021/08/11 00:31:16;;;;;;;7.45;1.92;;;20.50;62.20;;;;;;5069362;28;20136;-63
2021/08/11 00:33:43;;;;;;;2.88;1.60;;;20.70;61.90;;;;;;5070541;28;20474;-66
2021/08/11 00:36:11;;;;;;;3.67;1.77;;;20.70;62.70;;;;;;5069736;28;20032;-67
2021/08/11 00:38:38;;;;;;;4.78;1.60;;;20.80;62.10;;;;;;5069232;28;20020;-67
2021/08/11 00:41:05;;;;;;;4.35;1.50;;;20.80;61.00;;;;;;5070782;28;20693;-71
2021/08/11 00:43:33;;;;;;;4.35;1.80;;;20.80;61.40;;;;;;5070483;28;20028;-67
2021/08/11 00:46:00;;;;;;;4.20;1.45;;;20.90;61.70;;;;;;5070471;28;20096;-67
2021/08/11 00:48:28;;;;;;;4.70;1.67;;;20.80;61.80;;;;;;5070668;28;20025;-65
2021/08/11 00:50:57;;;;;;;2.92;1.33;;;20.80;62.40;;;;;;5070664;28;20024;-67
2021/08/11 00:53:27;;;;;;;4.63;1.73;;;20.90;62.50;;;;;;5070812;28;20038;-67
2021/08/11 00:55:57;;;;;;;3.05;1.48;;;21.00;62.00;;;;;;5069736;28;20043;-67
2021/08/11 00:58:26;;;;;;;3.25;1.55;;;21.00;61.90;;;;;;5069355;28;20024;-66
2021/08/11 01:00:54;;;;;;;2.30;1.25;;;20.90;62.10;;;;;;5061188;28;20028;-69
2021/08/11 01:03:23;;;;;;;3.40;1.45;;;20.90;62.10;;;;;;5070848;28;20082;-70
2021/08/11 01:05:53;;;;;;;8.93;1.85;;;20.90;62.60;;;;;;5070165;28;20140;-64
2021/08/11 01:08:21;;;;;;;4.10;1.92;;;21.00;61.50;;;;;;5069275;28;20140;-68
2021/08/11 01:10:50;;;;;;;2.97;1.30;;;21.10;61.40;;;;;;5065923;28;20040;-66
2021/08/11 01:13:18;;;;;;;4.32;1.58;;;21.20;60.10;;;;;;5070174;28;20053;-71
2021/08/11 01:15:46;;;;;;;2.83;1.33;;;21.20;61.40;;;;;;5070201;28;20483;-67
2021/08/11 01:18:18;;;;;;;14.70;10.38;;;21.30;60.50;;;;;;5073365;28;20032;-65
2021/08/11 01:21:37;;;;;;;8.63;5.75;;;21.80;58.60;;;;;;5064378;28;20138;-64
2021/08/11 01:24:25;;;;;;;9.40;2.90;;;22.00;58.10;;;;;;5060117;28;20167;-66
2021/08/11 01:27:07;;;;;;;6.07;4.07;;;22.10;57.70;;;;;;5067822;28;20025;-68
2021/08/11 01:29:55;;;;;;;12.48;6.18;;;22.20;56.80;;;;;;5064356;28;20060;-66
2021/08/11 01:32:59;;;;;;;9.43;7.50;;;22.20;57.60;;;;;;5065869;28;20110;-65
2021/08/11 01:35:43;;;;;;;5.82;4.13;;;22.10;57.70;;;;;;5067235;28;20375;-66
2021/08/11 01:38:16;;;;;;;8.90;4.47;;;21.60;59.70;;;;;;5067655;28;20047;-69
2021/08/11 01:40:58;;;;;;;7.50;4.28;;;21.10;61.30;;;;;;5064889;28;20040;-66
2021/08/11 01:43:29;;;;;;;8.27;5.80;;;21.00;61.20;;;;;;5065084;28;20024;-65
2021/08/11 01:45:58;;;;;;;5.25;3.92;;;21.10;61.50;;;;;;5067087;28;20039;-66
2021/08/11 01:48:30;;;;;;;9.63;5.13;;;21.30;60.80;;;;;;5050072;28;20635;-68
2021/08/11 01:50:58;;;;;;;10.65;5.22;;;21.40;61.10;;;;;;5062533;28;20039;-65
2021/08/11 01:53:28;;;;;;;7.30;4.28;;;21.20;61.90;;;;;;5068034;28;20025;-66
2021/08/11 01:55:58;;;;;;;9.48;5.53;;;21.40;61.50;;;;;;5068539;28;20024;-67
2021/08/11 01:58:27;;;;;;;6.53;5.07;;;21.50;61.10;;;;;;5068159;28;20553;-64
2021/08/11 02:01:01;;;;;;;7.22;4.78;;;21.50;61.40;;;;;;5062368;28;20036;-64
2021/08/11 02:03:29;;;;;;;9.00;4.03;;;21.70;60.50;;;;;;5063239;28;20032;-66
2021/08/11 02:05:57;;;;;;;6.60;5.32;;;21.80;60.00;;;;;;5067613;28;20039;-70
2021/08/11 02:08:26;;;;;;;8.00;4.97;;;21.70;60.70;;;;;;5068001;28;20043;-61
2021/08/11 02:11:00;;;;;;;7.38;6.32;;;22.00;60.00;;;;;;5057689;28;20078;-67
2021/08/11 02:13:29;;;;;;;7.43;5.53;;;21.60;60.80;;;;;;5068415;28;20025;-72
2021/08/11 02:15:56;;;;;;;8.25;5.30;;;21.50;60.90;;;;;;5063577;28;20044;-66
2021/08/11 02:18:24;;;;;;;8.32;5.80;;;22.00;59.80;;;;;;5064266;28;20051;-69
2021/08/11 02:20:51;;;;;;;5.95;5.05;;;21.90;60.20;;;;;;5061259;28;20367;-66
2021/08/11 02:23:19;;;;;;;6.10;5.47;;;21.90;60.50;;;;;;5067134;28;20025;-64
2021/08/11 02:25:54;;;;;;;10.30;7.50;;;22.10;59.80;;;;;;5066065;28;20368;-67
2021/08/11 02:28:35;;;;;;;10.80;7.05;;;22.20;59.30;;;;;;5066507;28;20172;-68
2021/08/11 02:31:16;;;;;;;13.13;7.00;;;22.40;58.40;;;;;;5061791;28;20038;-66
2021/08/11 02:33:57;;;;;;;4.85;3.38;;;22.00;59.90;;;;;;5067174;28;20086;-64
2021/08/11 02:36:32;;;;;;;4.80;3.05;;;22.00;59.30;;;;;;5065926;28;20356;-69
2021/08/11 02:39:13;;;;;;;7.03;3.85;;;22.20;59.90;;;;;;5067397;28;20109;-70
2021/08/11 02:41:53;;;;;;;5.63;3.30;;;22.40;58.90;;;;;;5057053;28;20071;-65
2021/08/11 02:44:31;;;;;;;5.22;3.30;;;22.40;58.80;;;;;;5065905;28;20493;-65
2021/08/11 02:47:01;;;;;;;5.63;3.05;;;22.40;59.50;;;;;;5066760;28;20432;-64
2021/08/11 02:49:32;;;;;;;3.85;2.92;;;22.30;59.70;;;;;;5062866;28;20043;-71
2021/08/11 02:52:02;;;;;;;4.82;2.33;;;22.40;58.60;;;;;;5067268;28;20486;-68
2021/08/11 02:54:30;;;;;;;4.13;3.08;;;22.50;58.70;;;;;;5070693;28;20090;-63
2021/08/11 02:57:01;;;;;;;6.60;2.67;;;22.60;59.00;;;;;;5067762;28;20035;-60
2021/08/11 02:59:29;;;;;;;8.02;3.38;;;22.50;59.30;;;;;;5061849;28;21135;-68
2021/08/11 03:01:57;;;;;;;5.28;2.70;;;22.70;58.90;;;;;;5067354;28;20055;-67
2021/08/11 03:04:25;;;;;;;6.18;2.47;;;22.70;58.40;;;;;;5069160;28;20052;-69
2021/08/11 03:06:52;;;;;;;4.85;2.55;;;22.60;58.40;;;;;;5066644;28;20016;-67
2021/08/11 03:09:21;;;;;;;8.68;2.10;;;22.70;58.60;;;;;;5063972;28;20170;-65
2021/08/11 03:11:49;;;;;;;4.43;2.55;;;22.80;58.20;;;;;;5066710;28;20021;-69
2021/08/11 03:14:18;;;;;;;5.55;2.78;;;22.70;58.70;;;;;;5065812;28;20028;-63
2021/08/11 03:16:45;;;;;;;6.25;2.47;;;22.80;58.40;;;;;;5067202;28;20039;-60
2021/08/11 03:19:16;;;;;;;4.45;2.53;;;22.90;58.30;;;;;;5065112;28;20036;-67
2021/08/11 03:21:44;;;;;;;5.47;2.58;;;23.00;58.70;;;;;;5064275;28;20033;-68
2021/08/11 03:24:11;;;;;;;5.25;2.70;;;23.00;58.00;;;;;;5068514;28;20032;-68
2021/08/11 03:26:39;;;;;;;5.55;2.10;;;23.00;57.30;;;;;;5067911;28;20017;-69
2021/08/11 03:29:06;;;;;;;4.20;2.78;;;23.10;57.80;;;;;;5066549;28;20527;-65
2021/08/11 03:31:34;;;;;;;6.57;2.53;;;23.00;58.10;;;;;;5064563;28;20036;-66
2021/08/11 03:34:01;;;;;;;5.20;2.50;;;23.10;57.80;;;;;;5067531;28;20025;-64
2021/08/11 03:36:29;;;;;;;5.15;2.38;;;23.20;57.40;;;;;;5066810;28;20043;-62
2021/08/11 03:38:56;;;;;;;3.53;2.38;;;23.20;56.50;;;;;;5067748;28;20035;-67
2021/08/11 03:41:23;;;;;;;5.40;1.92;;;23.30;57.10;;;;;;5063098;28;20052;-64
2021/08/11 03:43:51;;;;;;;3.78;2.08;;;23.40;57.00;;;;;;5068214;28;20030;-67
2021/08/11 03:46:18;;;;;;;6.55;2.53;;;23.30;57.00;;;;;;5070005;28;20078;-66
2021/08/11 03:48:52;;;;;;;3.60;1.65;;;23.20;57.00;;;;;;5069392;28;20035;-67
2021/08/11 03:51:30;;;;;;;3.90;2.08;;;23.10;57.20;;;;;;5067126;28;20552;-61
2021/08/11 03:54:10;;;;;;;4.20;1.90;;;23.00;57.40;;;;;;5075521;28;20016;-62
2021/08/11 03:56:40;;;;;;;5.82;2.08;;;22.90;57.40;;;;;;5069914;28;20356;-64
2021/08/11 03:59:08;;;;;;;4.43;2.05;;;22.80;58.20;;;;;;5072619;28;20013;-69
2021/08/11 04:01:35;;;;;;;6.10;2.22;;;22.50;59.90;;;;;;5066964;28;20021;-66
2021/08/11 04:04:03;;;;;;;3.60;1.58;;;22.50;59.80;;;;;;5070817;28;20021;-64
2021/08/11 04:06:31;;;;;;;7.70;2.28;;;22.80;58.80;;;;;;5070655;28;20466;-68
2021/08/11 04:08:58;;;;;;;3.58;1.40;;;22.80;59.60;;;;;;5071030;28;21171;-67
2021/08/11 04:11:26;;;;;;;4.45;1.80;;;23.00;57.70;;;;;;5064409;28;20466;-71
2021/08/11 04:13:54;;;;;;;3.53;1.40;;;23.00;58.90;;;;;;5071026;28;20033;-69
2021/08/11 04:16:21;;;;;;;3.53;2.10;;;23.30;57.40;;;;;;5070858;28;20650;-68
2021/08/11 04:18:48;;;;;;;2.80;1.50;;;23.50;56.50;;;;;;5070217;28;20056;-66
2021/08/11 04:21:16;;;;;;;3.70;1.38;;;23.70;56.80;;;;;;5064469;28;20467;-65
2021/08/11 04:23:43;;;;;;;3.78;1.80;;;23.70;56.40;;;;;;5067174;28;20068;-64
2021/08/11 04:26:11;;;;;;;4.30;1.50;;;23.80;56.10;;;;;;5069966;28;20052;-62
2021/08/11 04:28:38;;;;;;;3.35;1.50;;;24.00;54.50;;;;;;5068837;28;20107;-69
2021/08/11 04:31:06;;;;;;;1.95;1.13;;;23.90;55.50;;;;;;5064499;28;20029;-68
2021/08/11 04:33:33;;;;;;;4.28;1.70;;;24.00;54.40;;;;;;5070698;28;20129;-66
2021/08/11 04:36:01;;;;;;;6.35;1.50;;;23.90;56.30;;;;;;5070247;28;20024;-65
2021/08/11 04:38:28;;;;;;;2.47;1.20;;;23.90;56.30;;;;;;5069520;28;20056;-68
2021/08/11 04:40:56;;;;;;;2.47;1.50;;;23.90;55.20;;;;;;5064925;28;20029;-65
2021/08/11 04:43:23;;;;;;;4.53;1.40;;;24.10;54.80;;;;;;5069670;28;20089;-67
2021/08/11 04:45:51;;;;;;;3.20;1.40;;;24.10;55.10;;;;;;5065978;28;20366;-66
2021/08/11 04:48:18;;;;;;;5.63;1.40;;;24.30;55.30;;;;;;5069692;28;20028;-63
2021/08/11 04:50:46;;;;;;;5.18;1.27;;;24.10;54.60;;;;;;5063778;28;20021;-62
2021/08/11 04:53:13;;;;;;;5.05;1.50;;;24.20;54.40;;;;;;5069248;28;20028;-61
2021/08/11 04:55:40;;;;;;;2.53;1.10;;;24.30;54.30;;;;;;5071192;28;20475;-67
2021/08/11 04:58:08;;;;;;;5.68;1.35;;;24.20;54.40;;;;;;5069504;28;20027;-70
2021/08/11 05:00:35;;;;;;;2.95;1.20;;;24.40;53.70;;;;;;5072032;28;20020;-64
2021/08/11 05:03:03;;;;;;;6.15;1.33;;;24.40;52.90;;;;;;5073165;28;21116;-65
2021/08/11 05:05:30;;;;;;;3.05;1.02;;;24.40;53.90;;;;;;5073260;28;20059;-74
2021/08/11 05:07:58;;;;;;;7.60;1.33;;;24.30;54.10;;;;;;5071820;28;20040;-67
2021/08/11 05:10:26;;;;;;;2.88;1.00;;;24.40;54.50;;;;;;5072863;28;20016;-67
2021/08/11 05:12:53;;;;;;;2.70;1.55;;;24.30;53.90;;;;;;5072005;28;20115;-65
2021/08/11 05:15:21;;;;;;;3.55;1.23;;;24.30;53.20;;;;;;5070897;28;20013;-67
2021/08/11 05:17:48;;;;;;;4.50;1.20;;;24.30;54.70;;;;;;5071814;28;20378;-71
2021/08/11 05:20:16;;;;;;;6.60;1.13;;;24.50;52.90;;;;;;5072979;28;21109;-72
2021/08/11 05:22:43;;;;;;;2.38;1.30;;;24.40;53.70;;;;;;5072321;28;20059;-65
2021/08/11 05:25:11;;;;;;;1.77;0.90;;;24.20;54.30;;;;;;5072070;28;20056;-68
2021/08/11 05:27:38;;;;;;;2.05;0.90;;;24.20;54.10;;;;;;5072150;28;20021;-71
2021/08/11 05:30:10;;;;;;;4.20;1.27;;;24.20;53.30;;;;;;5070870;28;20028;-74
2021/08/11 05:32:38;;;;;;;4.25;1.13;;;24.20;53.70;;;;;;5073241;28;20382;-68
2021/08/11 05:35:06;;;;;;;2.53;1.15;;;24.10;55.20;;;;;;5072718;28;20032;-67
2021/08/11 05:37:34;;;;;;;2.08;1.48;;;24.20;54.40;;;;;;5073898;28;20025;-72
2021/08/11 05:40:01;;;;;;;2.97;1.17;;;24.20;54.80;;;;;;5070579;28;20079;-72
2021/08/11 05:42:28;;;;;;;2.03;1.05;;;24.10;52.50;;;;;;5072397;28;20025;-71
2021/08/11 05:44:56;;;;;;;9.00;1.63;;;24.10;53.00;;;;;;5071515;28;20182;-74
2021/08/11 05:47:23;;;;;;;3.30;0.88;;;24.00;54.80;;;;;;5065267;28;20824;-62
2021/08/11 05:49:51;;;;;;;1.63;0.90;;;23.70;54.40;;;;;;5067141;28;20079;-68
2021/08/11 05:52:18;;;;;;;2.45;0.93;;;23.70;54.50;;;;;;5065400;28;20027;-71
2021/08/11 05:54:46;;;;;;;4.43;0.82;;;23.60;56.00;;;;;;5071751;28;20033;-66
2021/08/11 05:57:13;;;;;;;3.28;0.88;;;23.40;55.10;;;;;;5068806;28;20371;-67
2021/08/11 05:59:41;;;;;;;1.30;0.70;;;23.20;56.50;;;;;;5065965;28;20032;-71
2021/08/11 06:02:08;;;;;;;4.68;1.00;;;23.20;56.90;;;;;;5072433;28;20024;-67
2021/08/11 06:04:36;;;;;;;2.58;1.00;;;23.00;56.30;;;;;;5070568;28;20027;-73
2021/08/11 06:07:04;;;;;;;1.50;0.70;;;23.10;57.30;;;;;;5070678;28;20111;-65
2021/08/11 06:09:32;;;;;;;3.53;0.90;;;23.00;57.00;;;;;;5064945;28;21325;-67
2021/08/11 06:11:59;;;;;;;1.85;0.80;;;23.00;57.30;;;;;;5068810;28;20025;-68
2021/08/11 06:14:27;;;;;;;3.63;1.15;;;23.00;57.60;;;;;;5067802;28;20478;-66
2021/08/11 06:16:54;;;;;;;2.63;0.95;;;23.10;54.90;;;;;;5068445;28;20020;-64
2021/08/11 06:19:22;;;;;;;4.03;0.90;;;23.10;55.70;;;;;;5062001;28;20028;-66
2021/08/11 06:21:49;;;;;;;1.70;0.85;;;23.10;56.50;;;;;;5067581;28;20047;-66
2021/08/11 06:24:18;;;;;;;2.72;1.10;;;23.00;56.90;;;;;;5068386;28;20025;-67
2021/08/11 06:26:45;;;;;;;2.20;0.70;;;23.00;56.60;;;;;;5069946;28;20051;-64
2021/08/11 06:29:13;;;;;;;3.85;0.80;;;22.90;55.50;;;;;;5064292;28;20055;-70
2021/08/11 06:31:40;;;;;;;2.53;1.08;;;22.90;55.80;;;;;;5067929;28;20111;-65
2021/08/11 06:34:08;;;;;;;3.22;0.68;;;22.70;56.40;;;;;;5067797;28;20055;-64
2021/08/11 06:36:35;;;;;;;4.75;0.80;;;22.60;55.50;;;;;;5067662;28;20024;-63
2021/08/11 06:39:03;;;;;;;2.45;1.00;;;22.50;56.40;;;;;;5061672;28;20031;-69
2021/08/11 06:41:30;;;;;;;4.80;1.23;;;22.30;57.00;;;;;;5068342;28;20025;-67
2021/08/11 06:43:57;;;;;;;1.67;0.65;;;22.30;56.80;;;;;;5063903;28;20457;-65
2021/08/11 06:46:25;;;;;;;3.22;0.68;;;22.10;58.10;;;;;;5066545;28;20081;-71
2021/08/11 06:48:55;;;;;;;3.17;1.27;;;21.90;58.60;;;;;;5059577;28;20032;-62
2021/08/11 06:51:22;;;;;;;2.35;0.73;;;21.80;58.10;;;;;;5066282;28;20028;-64
2021/08/11 06:53:50;;;;;;;1.80;0.98;;;21.70;59.90;;;;;;5067623;28;20021;-65
2021/08/11 06:56:17;;;;;;;3.00;0.85;;;21.50;60.30;;;;;;5066470;28;20126;-64
2021/08/11 06:58:45;;;;;;;1.92;0.57;;;21.50;60.80;;;;;;5059377;28;20024;-65
2021/08/11 07:01:12;;;;;;;2.33;0.70;;;21.40;60.30;;;;;;5067013;28;20060;-66
2021/08/11 07:03:40;;;;;;;3.35;1.05;;;21.30;61.70;;;;;;5067236;28;20024;-64
2021/08/11 07:06:08;;;;;;;3.22;1.02;;;21.20;62.30;;;;;;5067167;28;20491;-67
2021/08/11 07:08:36;;;;;;;2.30;0.47;;;21.10;61.10;;;;;;5059722;28;20040;-65
2021/08/11 07:11:03;;;;;;;7.80;1.20;;;21.00;61.80;;;;;;5066579;28;20020;-64
2021/08/11 07:13:31;;;;;;;2.55;0.88;;;21.00;62.90;;;;;;5066076;28;20068;-65
2021/08/11 07:15:58;;;;;;;2.60;0.75;;;20.90;62.40;;;;;;5066894;28;20078;-68
2021/08/11 07:18:26;;;;;;;2.05;1.08;;;21.00;62.60;;;;;;5060734;28;20052;-66
2021/08/11 07:20:53;;;;;;;1.55;0.73;;;20.90;63.60;;;;;;5066847;28;20024;-64
2021/08/11 07:23:21;;;;;;;2.38;0.90;;;20.80;64.40;;;;;;5066245;28;20035;-68
2021/08/11 07:25:48;;;;;;;3.58;1.25;;;20.70;64.00;;;;;;5067164;28;20037;-65
2021/08/11 07:28:16;;;;;;;5.40;1.02;;;20.70;64.60;;;;;;5058454;28;20506;-66
2021/08/11 07:30:45;;;;;;;4.07;1.15;;;20.60;64.90;;;;;;5067883;28;20437;-71
2021/08/11 07:33:13;;;;;;;3.65;1.00;;;20.50;65.80;;;;;;5066749;28;20052;-66
2021/08/11 07:35:42;;;;;;;3.38;1.10;;;20.50;65.40;;;;;;5067092;28;20798;-68
2021/08/11 07:38:10;;;;;;;3.17;1.05;;;20.50;65.40;;;;;;5060906;28;20017;-66
2021/08/11 07:40:38;;;;;;;3.65;1.02;;;20.50;66.10;;;;;;5066574;28;20025;-69
2021/08/11 07:43:06;;;;;;;3.85;1.02;;;20.40;65.80;;;;;;5070509;28;20039;-64
2021/08/11 07:45:34;;;;;;;2.33;0.70;;;20.40;66.20;;;;;;5067413;28;20021;-72
2021/08/11 07:48:02;;;;;;;5.68;0.70;;;20.40;66.40;;;;;;5061309;28;20482;-64
2021/08/11 07:50:31;;;;;;;5.07;0.82;;;20.30;66.30;;;;;;5065082;28;20028;-62
2021/08/11 07:52:59;;;;;;;2.58;1.10;;;20.40;66.50;;;;;;5065517;28;20130;-66
2021/08/11 07:55:27;;;;;;;1.77;0.90;;;20.30;66.80;;;;;;5065435;28;20111;-71
2021/08/11 07:57:54;;;;;;;2.25;0.98;;;20.30;66.90;;;;;;5061956;28;20484;-66
2021/08/11 08:00:22;;;;;;;4.03;0.88;;;20.30;66.90;;;;;;5066297;28;20501;-67
2021/08/11 08:02:51;;;;;;;4.47;0.82;;;20.30;67.00;;;;;;5066403;28;20567;-67
2021/08/11 08:05:18;;;;;;;3.53;0.90;;;20.20;66.80;;;;;;5066331;28;20069;-68
2021/08/11 08:07:46;;;;;;;4.75;0.80;;;20.20;66.40;;;;;;5062341;28;20039;-68
2021/08/11 08:10:14;;;;;;;1.60;0.57;;;20.10;67.10;;;;;;5063583;28;20055;-68
2021/08/11 08:12:43;;;;;;;1.75;0.80;;;20.10;67.50;;;;;;5065147;28;20028;-65
2021/08/11 08:15:13;;;;;;;1.70;0.75;;;20.10;67.50;;;;;;5065468;28;20071;-68
2021/08/11 08:17:43;;;;;;;1.13;0.57;;;20.10;66.90;;;;;;5064288;28;20532;-70
2021/08/11 08:20:12;;;;;;;11.85;1.55;;;20.10;67.70;;;;;;5065053;28;20048;-67
2021/08/11 08:22:39;;;;;;;4.15;0.75;;;20.00;68.10;;;;;;5066215;28;20078;-69
2021/08/11 08:25:07;;;;;;;2.60;1.10;;;20.00;67.90;;;;;;5064693;28;20028;-63
2021/08/11 08:27:34;;;;;;;1.45;0.57;;;20.00;68.10;;;;;;5064173;28;20434;-61
2021/08/11 08:30:06;;;;;;;1.60;0.82;;;19.90;68.40;;;;;;5062898;28;20128;-67
2021/08/11 08:32:34;;;;;;;2.35;1.10;;;19.90;68.60;;;;;;5064291;28;20033;-62
2021/08/11 08:35:01;;;;;;;2.90;0.80;;;19.90;68.00;;;;;;5066040;28;20044;-62
2021/08/11 08:37:39;;;;;;;1.65;0.63;;;19.90;68.60;;;;;;5068370;28;20564;-61
2021/08/11 08:40:10;;;;;;;1.90;0.68;;;19.90;68.80;;;;;;5066419;28;20063;-65
2021/08/11 08:42:38;;;;;;;3.85;1.02;;;19.80;68.10;;;;;;5071909;28;20018;-66
2021/08/11 08:45:07;;;;;;;2.88;1.23;;;19.80;68.70;;;;;;5065464;28;20359;-66
2021/08/11 08:47:37;;;;;;;7.72;1.10;;;19.80;69.10;;;;;;5064915;28;20025;-65
2021/08/11 08:50:07;;;;;;;2.78;1.02;;;19.80;68.90;;;;;;5064148;28;20041;-66
2021/08/11 08:52:36;;;;;;;1.20;0.68;;;19.70;69.40;;;;;;5069270;28;20027;-71
2021/08/11 08:55:05;;;;;;;2.97;0.88;;;19.70;69.40;;;;;;5068387;28;20040;-70
2021/08/11 08:57:35;;;;;;;2.60;1.02;;;19.60;69.50;;;;;;5071506;28;20109;-68
2021/08/11 09:00:06;;;;;;;5.78;1.67;;;19.60;69.60;;;;;;5067717;28;20028;-65
2021/08/11 09:02:40;;;;;;;3.47;1.48;;;19.60;69.90;;;;;;5072594;28;20071;-65
2021/08/11 09:05:10;;;;;;;6.82;3.20;;;19.60;69.50;;;;;;5070983;28;20032;-65
2021/08/11 09:07:43;;;;;;;19.02;10.57;;;19.60;70.00;;;;;;5069229;28;20099;-66
2021/08/11 09:10:28;;;;;;;39.28;21.27;;;19.60;69.90;;;;;;5070976;28;20028;-61
2021/08/11 09:13:09;;;;;;;46.78;25.10;;;19.60;69.90;;;;;;5073188;28;20036;-60
2021/08/11 09:15:46;;;;;;;97.15;54.97;;;19.60;70.00;;;;;;5067479;28;20033;-72
2021/08/11 09:18:28;;;;;;;117.40;62.40;;;19.60;70.40;;;;;;5070485;28;20033;-64
2021/08/11 09:21:09;;;;;;;125.72;64.28;;;19.60;70.10;;;;;;5070940;28;20032;-70
2021/08/11 09:23:41;;;;;;;110.45;60.03;;;19.60;69.80;;;;;;5073556;28;20044;-65
2021/08/11 09:26:11;;;;;;;107.85;57.67;;;19.60;70.40;;;;;;5074309;28;20106;-71
2021/08/11 09:28:43;;;;;;;101.00;57.90;;;19.60;69.90;;;;;;5068434;28;20133;-68
2021/08/11 09:31:31;;;;;;;104.00;57.58;;;19.60;70.40;;;;;;5072704;28;20025;-72
2021/08/11 09:34:07;;;;;;;103.78;61.25;;;19.60;70.60;;;;;;5071614;28;20074;-65
2021/08/11 09:36:55;;;;;;;93.80;54.45;;;19.60;70.70;;;;;;5073911;28;20118;-62
2021/08/11 09:39:23;;;;;;;101.47;54.85;;;19.50;70.60;;;;;;5068421;28;20025;-65
2021/08/11 09:42:06;;;;;;;99.25;57.20;;;19.60;70.80;;;;;;5073672;28;20025;-61
2021/08/11 09:44:35;;;;;;;99.88;57.00;;;19.50;70.80;;;;;;5071461;28;20115;-68
2021/08/11 09:47:30;;;;;;;105.18;58.33;;;19.50;71.10;;;;;;5072237;28;20025;-67
2021/08/11 09:50:02;;;;;;;100.82;55.67;;;19.50;71.10;;;;;;5066138;28;20420;-67
2021/08/11 09:52:52;;;;;;;103.43;56.05;;;19.50;71.30;;;;;;5073334;28;20035;-64
2021/08/11 09:55:20;;;;;;;87.25;50.30;;;19.50;71.20;;;;;;5072875;28;20056;-66
2021/08/11 09:57:48;;;;;;;85.50;49.38;;;19.50;70.80;;;;;;5071094;28;20540;-70
2021/08/11 10:00:39;;;;;;;86.03;49.83;;;19.50;70.90;;;;;;5070281;28;20028;-64
2021/08/11 10:03:08;;;;;;;83.32;46.47;;;19.40;71.40;;;;;;5073001;28;20099;-66
2021/08/11 10:05:37;;;;;;;92.47;50.92;;;19.40;70.70;;;;;;5072679;28;20024;-64
2021/08/11 10:08:05;;;;;;;92.45;51.92;;;19.40;71.30;;;;;;5070161;28;20360;-67
2021/08/11 10:10:48;;;;;;;86.00;48.55;;;19.40;72.00;;;;;;5071185;28;20028;-68
2021/08/11 10:13:21;;;;;;;85.60;48.58;;;19.40;71.60;;;;;;5074212;28;20501;-69
2021/08/11 10:15:49;;;;;;;82.28;46.13;;;19.40;72.00;;;;;;5072765;28;20056;-69
2021/08/11 10:18:29;;;;;;;80.78;47.33;;;19.30;71.70;;;;;;5070159;28;20115;-64
2021/08/11 10:20:59;;;;;;;78.95;43.10;;;19.30;71.80;;;;;;5071181;28;20380;-63
2021/08/11 10:23:27;;;;;;;80.82;46.17;;;19.20;72.10;;;;;;5071885;28;20032;-63
2021/08/11 10:25:55;;;;;;;92.65;49.65;;;19.20;72.40;;;;;;5071701;28;20024;-65
2021/08/11 10:28:25;;;;;;;82.88;44.60;;;19.10;72.60;;;;;;5063879;28;20049;-69
2021/08/11 10:30:53;;;;;;;77.22;44.95;;;19.10;72.70;;;;;;5060832;28;20525;-69
2021/08/11 10:33:21;;;;;;;67.40;39.80;;;19.10;72.60;;;;;;5066235;28;20440;-68
2021/08/11 10:35:49;;;;;;;63.30;37.88;;;19.10;72.70;;;;;;5067612;28;20489;-72
2021/08/11 10:38:18;;;;;;;64.93;36.03;;;19.10;72.80;;;;;;5059342;28;20032;-71
2021/08/11 10:40:52;;;;;;;71.45;38.70;;;19.00;72.40;;;;;;5064936;28;20463;-69
2021/08/11 10:43:21;;;;;;;64.45;36.83;;;19.10;72.60;;;;;;5067028;28;20099;-61
2021/08/11 10:45:59;;;;;;;62.90;35.38;;;19.00;72.70;;;;;;5070786;28;20032;-66
2021/08/11 10:48:26;;;;;;;62.20;36.00;;;19.10;72.60;;;;;;5057657;28;20052;-69
2021/08/11 10:50:54;;;;;;;60.78;33.10;;;19.00;72.60;;;;;;5066890;28;20029;-65
2021/08/11 10:53:22;;;;;;;72.38;37.58;;;19.00;72.70;;;;;;5067895;28;20052;-70
2021/08/11 10:55:51;;;;;;;59.92;35.83;;;19.00;72.90;;;;;;5068207;28;20028;-72
2021/08/11 10:58:46;;;;;;;57.75;33.97;;;19.00;72.80;;;;;;5060448;28;20259;-67
2021/08/11 11:01:57;;;;;;;49.08;30.42;;;19.00;72.80;;;;;;5067672;28;20065;-64
2021/08/11 11:04:46;;;;;;;49.65;29.92;;;19.00;72.90;;;;;;5066996;28;20033;-73
2021/08/11 11:07:20;;;;;;;52.65;30.85;;;18.90;72.60;;;;;;5067019;28;20044;-69
2021/08/11 11:09:48;;;;;;;52.42;29.33;;;19.00;72.70;;;;;;5061812;28;20048;-72
2021/08/11 11:12:22;;;;;;;49.85;30.58;;;18.90;72.80;;;;;;5067407;28;20033;-72
2021/08/11 11:15:10;;;;;;;55.70;31.15;;;18.90;72.80;;;;;;5064060;28;20039;-73
2021/08/11 11:18:21;;;;;;;49.47;27.77;;;18.90;72.90;;;;;;5070166;28;20025;-66
2021/08/11 11:21:01;;;;;;;37.72;23.95;;;18.90;73.00;;;;;;5064067;28;20475;-66
2021/08/11 11:23:32;;;;;;;43.38;26.50;;;18.80;72.70;;;;;;5068132;28;20024;-67
2021/08/11 11:26:05;;;;;;;48.85;27.98;;;18.80;72.80;;;;;;5068043;28;20462;-72
2021/08/11 11:28:56;;;;;;;46.78;26.20;;;18.80;73.00;;;;;;5058685;28;20065;-71
2021/08/11 11:31:51;;;;;;;45.63;25.20;;;18.80;72.70;;;;;;5064029;28;20020;-69
2021/08/11 11:34:32;;;;;;;42.88;23.52;;;18.80;72.20;;;;;;5067728;28;20025;-73
2021/08/11 11:36:59;;;;;;;49.67;27.13;;;18.80;72.80;;;;;;5064592;28;20032;-67
2021/08/11 11:39:28;;;;;;;39.08;24.23;;;18.80;73.30;;;;;;5058127;28;20035;-66
2021/08/11 11:42:19;;;;;;;46.03;24.45;;;18.80;73.10;;;;;;5068278;28;20487;-73
2021/08/11 11:44:50;;;;;;;41.13;22.35;;;18.80;73.40;;;;;;5065834;28;20033;-70
2021/08/11 11:47:44;;;;;;;36.60;22.95;;;18.80;73.10;;;;;;5066839;28;20024;-68
2021/08/11 11:50:27;;;;;;;42.05;23.17;;;18.70;73.10;;;;;;5059137;28;20036;-66
2021/08/11 11:52:57;;;;;;;33.83;21.25;;;18.70;73.10;;;;;;5063162;28;20029;-70
2021/08/11 11:55:41;;;;;;;35.90;22.00;;;18.70;73.20;;;;;;5067042;28;20020;-69
2021/08/11 11:58:14;;;;;;;36.97;20.35;;;18.70;73.30;;;;;;5060975;28;20104;-65
2021/08/11 12:00:47;;;;;;;34.95;20.08;;;18.70;73.30;;;;;;5066131;28;20032;-64
2021/08/11 12:03:16;;;;;;;36.47;22.35;;;18.70;73.50;;;;;;5067199;28;20021;-65
2021/08/11 12:05:50;;;;;;;35.72;21.25;;;18.70;73.60;;;;;;5066819;28;20051;-63
2021/08/11 12:08:20;;;;;;;34.70;21.05;;;18.60;73.30;;;;;;5062813;28;20036;-66
2021/08/11 12:10:50;;;;;;;37.25;21.45;;;18.60;73.40;;;;;;5066457;28;20028;-67
2021/08/11 12:13:18;;;;;;;33.92;18.85;;;18.60;73.40;;;;;;5070951;28;20016;-65
2021/08/11 12:15:53;;;;;;;31.75;18.83;;;18.60;73.40;;;;;;5071728;28;20090;-66
2021/08/11 12:18:25;;;;;;;32.47;20.88;;;18.60;73.30;;;;;;5065808;28;20052;-66
2021/08/11 12:20:55;;;;;;;34.08;19.63;;;18.60;73.70;;;;;;5069461;28;20131;-67
2021/08/11 12:23:31;;;;;;;32.50;17.58;;;18.60;73.80;;;;;;5071503;28;20415;-74
2021/08/11 12:26:02;;;;;;;32.13;18.13;;;18.60;73.20;;;;;;5070815;28;20037;-69
2021/08/11 12:28:34;;;;;;;26.92;16.73;;;18.60;73.70;;;;;;5063683;28;20060;-64
2021/08/11 12:31:08;;;;;;;33.10;18.73;;;18.60;73.10;;;;;;5068912;28;20064;-70
2021/08/11 12:33:38;;;;;;;32.97;18.27;;;18.60;73.70;;;;;;5068877;28;20028;-67
2021/08/11 12:36:21;;;;;;;30.40;18.67;;;18.60;73.80;;;;;;5070351;28;20035;-68
2021/08/11 12:38:58;;;;;;;;;;;18.60;73.80;;;;;;5064522;28;20032;-70
2021/08/11 12:41:30;;;;;;;26.65;15.82;;;18.60;73.80;;;;;;5068951;28;19909;-68
2021/08/11 12:44:11;;;;;;;30.95;17.27;;;18.60;73.40;;;;;;5068559;28;20127;-64
2021/08/11 12:46:44;;;;;;;27.67;16.15;;;18.60;73.60;;;;;;5068531;28;20110;-65
2021/08/11 12:49:18;;;;;;;26.95;16.52;;;18.60;73.80;;;;;;5063514;28;20037;-62
2021/08/11 12:51:47;;;;;;;23.77;15.50;;;18.60;73.50;;;;;;5065636;28;20029;-66
2021/08/11 12:54:14;;;;;;;26.50;15.38;;;18.60;73.40;;;;;;5070590;28;20024;-64
2021/08/11 12:56:58;;;;;;;24.15;15.00;;;18.60;73.40;;;;;;5066735;28;20016;-65
2021/08/11 12:59:49;;;;;;;28.52;15.40;;;18.60;73.60;;;;;;5063423;28;20032;-67
2021/08/11 13:02:21;;;;;;;23.00;13.80;;;18.60;73.10;;;;;;5069664;28;20493;-69